Time;durP1;ratioP1;P1;durP2;ratioP2;P2;SDS_P1;SDS_P2;PMS_P1;PMS_P2;Temp;Humidity;BMP_temperature;BMP_pressure;BME280_temperature;BME280_humidity;BME280_pressure;Samples;Min_cycle;Max_cycle;Signal;HPM_P1;HPM_P2
2021/12/26 00:00:09;;;;;;;;;14.00;13.50;;;;;19.83;41.20;99862.91;5058174;28;46463;-52
2021/12/26 00:02:34;;;;;;;;;12.25;11.75;;;;;19.80;41.49;99865.75;5040065;28;45961;-51
2021/12/26 00:05:00;;;;;;;;;13.25;13.25;;;;;19.78;41.67;99850.94;5040411;28;45285;-51
2021/12/26 00:07:25;;;;;;;;;12.50;12.50;;;;;19.78;41.28;99847.44;5058269;28;45457;-52
2021/12/26 00:09:50;;;;;;;;;15.75;13.75;;;;;19.77;41.26;99851.88;5057996;28;46052;-50
2021/12/26 00:12:16;;;;;;;;;11.50;9.50;;;;;19.76;42.06;99844.94;5039875;28;45586;-52
2021/12/26 00:14:41;;;;;;;;;14.75;13.50;;;;;19.81;41.55;99854.28;5058148;28;45269;-50
2021/12/26 00:17:07;;;;;;;;;13.50;10.25;;;;;19.82;41.95;99848.09;5058262;28;45545;-52
2021/12/26 00:19:32;;;;;;;;;14.00;13.00;;;;;19.87;41.40;99848.66;5058094;28;45366;-54
2021/12/26 00:21:57;;;;;;;;;12.25;11.25;;;;;19.92;41.54;99851.78;5057833;28;45438;-52
2021/12/26 00:24:23;;;;;;;;;12.00;10.75;;;;;19.96;41.61;99840.13;5056843;28;45321;-53
2021/12/26 00:26:48;;;;;;;;;14.00;12.75;;;;;20.02;42.03;99846.75;5058027;28;45602;-51
2021/12/26 00:29:13;;;;;;;;;12.75;10.50;;;;;20.06;41.75;99849.06;5057550;28;45558;-53
2021/12/26 00:31:39;;;;;;;;;14.25;13.00;;;;;20.10;41.26;99843.59;5057685;28;45316;-54
2021/12/26 00:34:04;;;;;;;;;15.50;13.25;;;;;20.16;41.34;99838.75;5058018;28;45219;-49
2021/12/26 00:36:30;;;;;;;;;11.75;10.25;;;;;20.19;41.67;99835.06;5058439;28;45480;-52
2021/12/26 00:38:55;;;;;;;;;13.00;10.75;;;;;20.24;41.71;99830.31;5057409;28;47438;-54
2021/12/26 00:41:21;;;;;;;;;14.25;13.50;;;;;20.28;41.04;99826.53;5057357;28;45402;-54
2021/12/26 00:43:46;;;;;;;;;17.25;13.25;;;;;20.30;41.27;99824.63;5057288;28;45355;-55
2021/12/26 00:46:11;;;;;;;;;13.50;10.75;;;;;20.35;41.24;99827.75;5057714;28;45327;-53
2021/12/26 00:48:37;;;;;;;;;12.25;12.25;;;;;20.39;41.57;99818.72;5057375;28;45350;-50
2021/12/26 00:51:02;;;;;;;;;15.00;13.00;;;;;20.42;41.30;99822.91;5057643;28;45344;-52
2021/12/26 00:53:28;;;;;;;;;15.00;13.75;;;;;20.45;41.48;99825.34;5057412;28;45372;-53
2021/12/26 00:55:54;;;;;;;;;16.75;13.75;;;;;20.48;41.35;99830.38;5057437;28;45609;-51
2021/12/26 00:58:20;;;;;;;;;14.25;14.00;;;;;20.49;41.30;99839.97;5056632;28;46409;-52
2021/12/26 01:00:48;;;;;;;;;13.25;12.50;;;;;20.51;41.08;99835.41;5038672;28;45436;-52
2021/12/26 01:03:16;;;;;;;;;13.50;13.50;;;;;20.53;40.94;99837.97;5057142;28;45452;-54
2021/12/26 01:05:46;;;;;;;;;14.75;12.25;;;;;20.55;41.28;99838.69;5057373;28;45510;-50
2021/12/26 01:08:14;;;;;;;;;13.50;11.50;;;;;20.55;40.76;99836.88;5056811;28;46663;-52
2021/12/26 01:10:42;;;;;;;;;14.00;13.00;;;;;20.54;40.56;99832.56;5038965;28;45277;-55
2021/12/26 01:13:53;;;;;;;;;16.00;14.25;;;;;20.57;40.77;99834.13;5057173;28;45340;-52
2021/12/26 01:16:03;;;;;;;;;13.00;12.00;;;;;20.57;41.12;99830.69;5048810;28;45225;-53
2021/12/26 01:18:40;;;;;;;;;12.00;11.00;;;;;20.57;41.02;99834.13;5056745;28;47483;-52
2021/12/26 01:21:18;;;;;;;;;13.25;11.75;;;;;20.57;41.12;99842.03;5057027;28;45899;-49
2021/12/26 01:23:46;;;;;;;;;13.50;12.75;;;;;20.57;40.86;99842.03;5057002;28;45241;-53
2021/12/26 01:26:12;;;;;;;;;12.00;12.00;;;;;20.57;41.14;99838.56;5057131;28;45382;-52
2021/12/26 01:28:38;;;;;;;;;10.25;10.25;;;;;20.55;41.20;99834.25;5056796;28;45462;-51
2021/12/26 01:31:04;;;;;;;;;13.00;10.75;;;;;20.55;40.81;99833.44;5056894;28;45391;-53
2021/12/26 01:33:29;;;;;;;;;11.75;11.00;;;;;20.55;40.81;99831.63;5056962;28;45553;-52
2021/12/26 01:35:55;;;;;;;;;13.50;10.75;;;;;20.54;41.15;99832.56;5056919;28;45506;-53
2021/12/26 01:38:21;;;;;;;;;10.50;10.50;;;;;20.54;41.04;99837.00;5056571;28;46266;-52
2021/12/26 01:40:52;;;;;;;;;15.75;10.75;;;;;20.51;40.84;99827.50;5056570;28;45236;-51
2021/12/26 01:43:21;;;;;;;;;14.25;14.25;;;;;20.52;41.08;99834.47;5056774;28;45304;-53
2021/12/26 01:45:48;;;;;;;;;8.00;8.00;;;;;20.50;40.73;99825.00;5056643;28;45243;-53
2021/12/26 01:48:15;;;;;;;;;13.00;12.00;;;;;20.50;41.00;99831.13;5056472;28;45446;-54
2021/12/26 01:50:42;;;;;;;;;15.00;11.50;;;;;20.47;40.85;99826.06;5056326;28;45362;-52
2021/12/26 01:53:09;;;;;;;;;12.25;12.25;;;;;20.46;40.52;99824.38;5056854;28;45257;-49
2021/12/26 01:58:05;;;;;;;;;10.50;8.75;;;;;20.41;40.44;99815.97;5056396;28;45305;-50
2021/12/26 02:00:32;;;;;;;;;10.75;10.00;;;;;20.43;40.78;99823.78;5056367;28;45767;-44
2021/12/26 02:02:57;;;;;;;;;11.25;9.25;;;;;20.43;40.70;99821.97;5056582;28;45332;-45
2021/12/26 02:05:23;;;;;;;;;10.75;9.50;;;;;20.39;40.50;99821.34;5056663;28;45624;-48
2021/12/26 02:07:49;;;;;;;;;12.00;10.25;;;;;20.39;40.57;99828.41;5056111;28;45438;-44
2021/12/26 02:10:15;;;;;;;;;9.25;9.00;;;;;20.38;41.19;99829.34;5057231;28;45384;-51
2021/12/26 02:12:41;;;;;;;;;9.75;9.75;;;;;20.37;40.77;99839.03;5060027;28;45354;-48
2021/12/26 02:15:07;;;;;;;;;14.00;11.00;;;;;20.35;40.80;99833.03;5060416;28;45409;-50
2021/12/26 02:17:32;;;;;;;;;13.25;12.25;;;;;20.36;41.16;99844.41;5059654;28;47414;-50
2021/12/26 02:23:33;;;;;;;;;14.75;11.00;;;;;20.32;40.70;99832.41;5051317;28;45311;-49
2021/12/26 02:28:25;;;;;;;;;12.00;10.00;;;;;20.28;41.00;99831.78;5059491;28;46113;-50
2021/12/26 02:30:52;;;;;;;;;11.00;9.25;;;;;20.29;40.89;99833.47;5059567;28;46229;-51
2021/12/26 02:33:18;;;;;;;;;14.00;10.00;;;;;20.27;41.16;99824.84;5059771;28;45449;-53
2021/12/26 02:35:45;;;;;;;;;9.25;9.25;;;;;20.27;41.01;99830.09;5059672;28;45395;-54
2021/12/26 02:38:12;;;;;;;;;11.50;11.00;;;;;20.24;41.24;99830.31;5059575;28;45472;-49
2021/12/26 02:40:39;;;;;;;;;15.50;8.25;;;;;20.23;40.74;99823.34;5041644;28;45700;-50
2021/12/26 02:43:06;;;;;;;;;9.25;9.25;;;;;20.22;41.25;99827.78;5059569;28;45272;-53
2021/12/26 02:45:32;;;;;;;;;10.00;9.50;;;;;20.20;41.28;99820.97;5059783;28;45344;-50
2021/12/26 02:47:58;;;;;;;;;9.50;9.00;;;;;20.20;40.66;99813.06;5059190;28;45333;-51
2021/12/26 02:50:27;;;;;;;;;10.50;9.75;;;;;20.16;41.00;99809.81;5059225;28;45371;-52
2021/12/26 02:52:54;;;;;;;;;14.50;10.50;;;;;20.17;41.25;99813.28;5059397;28;45477;-50
2021/12/26 02:55:21;;;;;;;;;8.75;8.75;;;;;20.15;41.38;99810.78;5059558;28;45521;-52
2021/12/26 02:57:49;;;;;;;;;12.00;9.50;;;;;20.15;41.17;99810.78;5059141;28;46145;-50
2021/12/26 03:00:23;;;;;;;;;10.00;10.00;;;;;20.13;41.08;99812.66;5059090;28;45855;-52
2021/12/26 03:02:53;;;;;;;;;10.50;8.75;;;;;20.11;40.77;99811.09;5059340;28;45395;-53
2021/12/26 03:05:19;;;;;;;;;11.25;8.75;;;;;20.11;41.23;99814.56;5041148;28;45297;-51
2021/12/26 03:07:47;;;;;;;;;11.00;11.00;;;;;20.08;41.53;99815.63;5058889;28;45784;-50
2021/12/26 03:10:21;;;;;;;;;9.75;9.75;;;;;20.08;41.14;99815.63;5059102;28;45775;-47
2021/12/26 03:12:49;;;;;;;;;8.25;8.25;;;;;20.07;41.02;99813.94;5059005;28;45334;-51
2021/12/26 03:15:14;;;;;;;;;9.50;9.25;;;;;20.06;41.39;99812.25;5059187;28;45605;-52
2021/12/26 03:17:40;;;;;;;;;10.00;9.25;;;;;20.06;41.22;99811.41;5041006;28;45612;-51
2021/12/26 03:20:13;;;;;;;;;8.75;8.25;;;;;20.05;41.63;99815.00;5058915;28;45399;-53
2021/12/26 03:22:39;;;;;;;;;10.25;9.25;;;;;20.02;41.31;99815.19;5040463;28;45439;-49
2021/12/26 03:25:09;;;;;;;;;11.50;9.00;;;;;20.02;40.95;99810.75;5059010;28;45631;-49
2021/12/26 03:27:34;;;;;;;;;10.25;10.25;;;;;20.00;41.29;99812.69;5058703;28;46685;-51
2021/12/26 03:29:59;;;;;;;;;8.75;8.75;;;;;20.01;40.97;99814.34;5040501;28;45402;-53
2021/12/26 03:32:25;;;;;;;;;9.50;8.75;;;;;19.99;41.14;99818.03;5058636;28;45494;-50
2021/12/26 03:34:50;;;;;;;;;9.75;9.50;;;;;19.98;41.25;99808.44;5040647;28;45621;-53
2021/12/26 03:37:17;;;;;;;;;11.50;10.00;;;;;19.98;41.01;99816.34;5058482;28;45676;-50
2021/12/26 03:39:43;;;;;;;;;11.75;10.00;;;;;19.97;41.39;99807.63;5058717;28;45799;-49
2021/12/26 03:42:09;;;;;;;;;9.25;8.00;;;;;19.95;41.33;99812.16;5058683;28;45715;-48
2021/12/26 03:44:35;;;;;;;;;9.50;9.00;;;;;19.92;41.10;99810.56;5058697;28;45613;-51
2021/12/26 03:47:01;;;;;;;;;12.25;10.50;;;;;19.93;41.20;99808.78;5058150;28;45380;-52
2021/12/26 03:49:27;;;;;;;;;9.00;7.25;;;;;19.92;41.30;99805.31;5058366;28;45296;-51
2021/12/26 03:51:52;;;;;;;;;12.25;10.75;;;;;19.91;41.30;99808.03;5058444;28;45398;-51
2021/12/26 03:54:18;;;;;;;;;11.75;10.00;;;;;19.90;41.10;99804.56;5058588;28;45546;-52
2021/12/26 03:56:44;;;;;;;;;9.00;9.00;;;;;19.90;41.39;99804.56;5058600;28;46235;-52
2021/12/26 03:59:09;;;;;;;;;8.50;8.50;;;;;19.88;41.37;99797.75;5058501;28;45387;-51
2021/12/26 04:01:35;;;;;;;;;12.25;10.00;;;;;19.89;41.23;99802.06;5058437;28;45268;-49
2021/12/26 04:04:01;;;;;;;;;11.50;9.75;;;;;19.85;41.63;99798.75;5040470;28;45494;-50
2021/12/26 04:06:26;;;;;;;;;12.50;9.50;;;;;19.87;40.97;99803.94;5058147;28;45328;-51
2021/12/26 04:08:51;;;;;;;;;10.00;8.25;;;;;19.86;41.59;99797.00;5058026;28;45324;-47
2021/12/26 04:11:17;;;;;;;;;11.00;9.00;;;;;19.83;41.52;99795.41;5058269;28;45414;-47
2021/12/26 04:13:43;;;;;;;;;8.50;8.50;;;;;19.84;41.33;99785.72;5040703;28;45575;-48
2021/12/26 04:16:08;;;;;;;;;9.25;8.00;;;;;19.84;41.01;99788.34;5057998;28;45504;-49
2021/12/26 04:18:34;;;;;;;;;5.00;5.00;;;;;19.83;41.62;99784.03;5057989;28;45342;-47
2021/12/26 04:20:59;;;;;;;;;11.25;10.50;;;;;19.82;41.52;99779.72;5058027;28;45324;-50
2021/12/26 04:23:24;;;;;;;;;9.00;9.00;;;;;19.82;41.43;99782.34;5058078;28;45446;-48
2021/12/26 04:25:50;;;;;;;;;11.00;10.00;;;;;19.81;41.08;99784.16;5057683;28;45543;-47
2021/12/26 04:28:19;;;;;;;;;9.00;7.75;;;;;19.80;41.73;99778.97;5058085;28;45958;-46
2021/12/26 04:30:46;;;;;;;;;0.00;0.00;;;;;19.78;41.58;99774.69;5058198;28;45409;-47
2021/12/26 04:33:12;;;;;;;;;7.75;7.00;;;;;19.78;41.34;99777.31;5057662;28;45606;-48
2021/12/26 04:35:38;;;;;;;;;8.25;7.75;;;;;19.76;41.52;99778.34;5056989;28;45367;-47
2021/12/26 04:38:03;;;;;;;;;11.75;9.75;;;;;19.77;41.32;99780.91;5057545;28;45402;-52
2021/12/26 04:40:28;;;;;;;;;8.00;8.00;;;;;19.74;41.30;99786.34;5057705;28;45415;-48
2021/12/26 04:42:54;;;;;;;;;9.25;9.25;;;;;19.75;41.33;99787.19;5057762;28;45411;-49
2021/12/26 04:45:20;;;;;;;;;9.75;9.25;;;;;19.74;41.24;99786.34;5057170;28;46357;-49
2021/12/26 04:47:45;;;;;;;;;10.00;9.50;;;;;19.73;41.38;99783.84;5057879;28;45434;-53
2021/12/26 04:50:17;;;;;;;;;11.00;8.75;;;;;19.72;41.67;99772.47;5057650;28;45426;-50
2021/12/26 04:52:44;;;;;;;;;8.50;8.50;;;;;19.72;41.27;99776.91;5058167;28;45310;-53
2021/12/26 04:55:12;;;;;;;;;8.00;8.00;;;;;19.71;41.72;99770.78;5057288;28;46188;-52
2021/12/26 04:57:37;;;;;;;;;13.25;9.50;;;;;19.71;41.55;99765.53;5057397;28;45225;-48
2021/12/26 05:00:05;;;;;;;;;10.50;10.50;;;;;19.69;41.48;99767.41;5057495;28;45324;-49
2021/12/26 05:02:33;;;;;;;;;11.00;8.50;;;;;19.68;41.84;99771.00;5057357;28;45427;-52
2021/12/26 05:04:58;;;;;;;;;11.00;10.25;;;;;19.66;41.52;99766.78;5057044;28;47503;-52
2021/12/26 05:07:23;;;;;;;;;13.75;11.00;;;;;19.65;41.98;99763.34;5056864;28;45426;-52
2021/12/26 05:09:49;;;;;;;;;13.75;11.75;;;;;19.63;41.89;99763.41;5057254;28;45370;-51
2021/12/26 05:12:14;;;;;;;;;15.50;11.75;;;;;19.63;41.51;99758.16;5057524;28;45671;-48
2021/12/26 05:14:39;;;;;;;;;14.75;13.25;;;;;19.64;42.00;99759.03;5056952;28;46589;-50
2021/12/26 05:17:05;;;;;;;;;15.50;13.75;;;;;19.62;42.12;99764.38;5057000;28;45369;-48
2021/12/26 05:19:30;;;;;;;;;14.00;14.00;;;;;19.61;41.88;99757.44;5057087;28;45291;-52
2021/12/26 05:21:56;;;;;;;;;14.75;13.75;;;;;19.62;42.08;99764.38;5057250;28;45312;-50
2021/12/26 05:24:21;;;;;;;;;13.25;12.50;;;;;19.62;42.13;99760.91;5056649;28;46348;-51
2021/12/26 05:26:46;;;;;;;;;15.50;11.75;;;;;19.62;42.06;99760.91;5057087;28;45303;-52
2021/12/26 05:29:12;;;;;;;;;16.50;13.75;;;;;19.62;42.19;99760.91;5056923;28;45182;-51
2021/12/26 05:31:37;;;;;;;;;14.25;13.00;;;;;19.60;42.00;99757.53;5057138;28;45264;-49
2021/12/26 05:34:02;;;;;;;;;15.25;13.75;;;;;19.59;42.37;99755.84;5056769;28;45554;-49
2021/12/26 05:36:28;;;;;;;;;11.50;11.50;;;;;19.58;42.27;99749.78;5038217;28;45464;-50
2021/12/26 05:38:54;;;;;;;;;12.75;11.00;;;;;19.59;42.20;99750.59;5056780;28;45239;-50
2021/12/26 05:41:19;;;;;;;;;11.00;10.00;;;;;19.58;42.20;99748.91;5056890;28;45587;-54
2021/12/26 05:43:45;;;;;;;;;10.00;10.00;;;;;19.59;42.36;99738.31;5056694;28;45467;-54
2021/12/26 05:46:10;;;;;;;;;9.75;9.75;;;;;19.59;41.91;99746.19;5056185;28;45287;-51
2021/12/26 05:48:35;;;;;;;;;9.75;9.75;;;;;19.60;42.28;99749.66;5056706;28;45454;-51
2021/12/26 05:51:01;;;;;;;;;12.00;12.00;;;;;19.60;41.93;99741.75;5056839;28;45329;-53
2021/12/26 05:53:26;;;;;;;;;12.25;10.25;;;;;19.57;41.80;99741.97;5038286;28;47987;-50
2021/12/26 05:55:51;;;;;;;;;11.25;10.50;;;;;19.61;41.88;99754.81;5056354;28;45345;-54
2021/12/26 05:58:17;;;;;;;;;11.25;9.25;;;;;19.61;42.18;99752.19;5057007;28;45395;-52
2021/12/26 06:00:42;;;;;;;;;7.00;7.00;;;;;19.61;41.80;99748.72;5056683;28;45429;-53
2021/12/26 06:03:08;;;;;;;;;11.50;8.00;;;;;19.62;42.14;99761.72;5056309;28;45315;-51
2021/12/26 06:05:33;;;;;;;;;8.25;8.00;;;;;19.62;41.99;99753.03;5056365;28;45371;-49
2021/12/26 06:07:58;;;;;;;;;8.75;8.50;;;;;19.61;41.86;99753.97;5056337;28;45371;-48
2021/12/26 06:10:24;;;;;;;;;9.00;8.00;;;;;19.62;42.32;99755.66;5056658;28;45375;-48
2021/12/26 06:12:49;;;;;;;;;10.00;9.00;;;;;19.61;42.01;99751.34;5056487;28;46258;-51
2021/12/26 06:15:14;;;;;;;;;10.75;9.75;;;;;19.61;41.60;99751.34;5038213;28;45371;-54
2021/12/26 06:17:40;;;;;;;;;13.00;11.25;;;;;19.61;41.92;99753.97;5056261;28;45734;-53
2021/12/26 06:20:11;;;;;;;;;9.50;9.50;;;;;19.60;41.93;99754.91;5056407;28;45332;-53
2021/12/26 06:22:36;;;;;;;;;10.00;9.00;;;;;19.58;42.01;99755.03;5055980;28;46073;-52
2021/12/26 06:25:02;;;;;;;;;9.00;7.50;;;;;19.59;42.32;99754.09;5056037;28;45257;-52
2021/12/26 06:27:27;;;;;;;;;9.75;7.50;;;;;19.56;42.04;99749.03;5056110;28;45948;-51
2021/12/26 06:29:52;;;;;;;;;9.00;9.00;;;;;19.59;42.41;99750.59;5056308;28;45536;-53
2021/12/26 06:32:18;;;;;;;;;9.25;9.00;;;;;19.58;41.93;99748.91;5056104;28;46463;-52
2021/12/26 06:34:43;;;;;;;;;12.00;9.75;;;;;19.56;42.35;99754.28;5056018;28;45503;-50
2021/12/26 06:37:08;;;;;;;;;8.00;8.00;;;;;19.54;42.35;99748.28;5056177;28;45406;-51
2021/12/26 06:39:34;;;;;;;;;10.00;9.00;;;;;19.56;42.05;99750.81;5038108;28;45438;-52
2021/12/26 06:41:59;;;;;;;;;9.00;9.00;;;;;19.55;41.83;99749.97;5037707;28;47391;-52
2021/12/26 06:44:24;;;;;;;;;8.00;7.25;;;;;19.55;42.17;99749.16;5055668;28;47480;-50
2021/12/26 06:46:50;;;;;;;;;8.25;8.00;;;;;19.53;41.92;99749.22;5038212;28;45396;-50
2021/12/26 06:49:17;;;;;;;;;9.00;8.25;;;;;19.52;41.70;99739.66;5056155;28;45357;-51
2021/12/26 06:51:45;;;;;;;;;11.25;8.25;;;;;19.52;41.99;99739.66;5055569;28;45557;-49
2021/12/26 06:54:10;;;;;;;;;8.00;8.00;;;;;19.53;42.12;99743.16;5037570;28;45175;-49
2021/12/26 06:56:35;;;;;;;;;8.25;8.00;;;;;19.51;42.26;99742.41;5055738;28;45249;-52
2021/12/26 06:59:00;;;;;;;;;7.00;7.00;;;;;19.52;42.19;99749.34;5059479;28;45478;-52
2021/12/26 07:01:26;;;;;;;;;7.50;7.00;;;;;19.48;41.99;99746.09;5059208;28;46660;-49
2021/12/26 07:03:53;;;;;;;;;9.50;8.50;;;;;19.51;42.23;99751.16;5059480;28;45482;-53
2021/12/26 07:06:19;;;;;;;;;9.00;9.00;;;;;19.50;42.12;99752.09;5059474;28;45427;-50
2021/12/26 07:08:44;;;;;;;;;8.50;7.00;;;;;19.49;42.39;99746.91;5041056;28;45356;-53
2021/12/26 07:11:10;;;;;;;;;8.00;6.75;;;;;19.49;41.88;99739.88;5040784;28;48412;-50
2021/12/26 07:13:35;;;;;;;;;9.00;9.00;;;;;19.49;41.90;99742.53;5040901;28;45288;-54
2021/12/26 07:16:01;;;;;;;;;9.25;7.00;;;;;19.49;41.79;99739.03;5059050;28;45200;-52
2021/12/26 07:18:27;;;;;;;;;6.25;6.25;;;;;19.49;41.93;99744.28;5059009;28;45322;-54
2021/12/26 07:20:52;;;;;;;;;3.00;3.00;;;;;19.48;42.35;99748.72;5041027;28;48033;-53
2021/12/26 07:23:18;;;;;;;;;8.50;6.00;;;;;19.47;42.21;99750.50;5058679;28;45233;-48
2021/12/26 07:25:44;;;;;;;;;6.50;6.00;;;;;19.47;42.30;99755.75;5058878;28;45332;-53
2021/12/26 07:28:09;;;;;;;;;6.75;6.75;;;;;19.46;41.93;99756.69;5059048;28;45232;-50
2021/12/26 07:30:35;;;;;;;;;6.75;6.75;;;;;19.47;42.27;99762.81;5058579;28;46316;-52
2021/12/26 07:33:00;;;;;;;;;10.00;8.00;;;;;19.42;41.90;99757.00;5058667;28;45429;-54
2021/12/26 07:35:26;;;;;;;;;8.75;6.25;;;;;19.45;42.04;99762.91;5058884;28;45348;-54
2021/12/26 07:37:55;;;;;;;;;9.75;7.00;;;;;19.44;42.09;99758.59;5059114;28;45551;-51
2021/12/26 07:40:21;;;;;;;;;6.75;6.25;;;;;19.43;42.20;99756.91;5058939;28;45368;-54
2021/12/26 07:42:46;;;;;;;;;8.25;6.00;;;;;19.44;41.97;99758.59;5058464;28;45211;-49
2021/12/26 07:45:12;;;;;;;;;6.00;6.00;;;;;19.43;42.37;99751.66;5040401;28;45467;-49
2021/12/26 07:47:38;;;;;;;;;7.00;6.00;;;;;19.43;41.90;99746.41;5058803;28;45229;-47
2021/12/26 07:50:04;;;;;;;;;7.00;7.00;;;;;19.44;41.91;99757.75;5040260;28;46962;-50
2021/12/26 07:52:34;;;;;;;;;8.25;5.75;;;;;19.43;42.46;99756.06;5058220;28;45991;-50
2021/12/26 07:55:01;;;;;;;;;7.75;7.00;;;;;19.42;41.94;99762.25;5057269;28;45367;-51
2021/12/26 07:57:26;;;;;;;;;7.50;7.25;;;;;19.40;42.06;99757.13;5058575;28;45626;-55
2021/12/26 07:59:51;;;;;;;;;8.25;8.25;;;;;19.40;42.13;99757.13;5058538;28;46311;-51
2021/12/26 08:02:19;;;;;;;;;8.75;6.75;;;;;19.40;42.09;99766.78;5058118;28;45334;-51
2021/12/26 08:04:45;;;;;;;;;9.25;7.25;;;;;19.38;42.42;99766.06;5058292;28;45440;-52
2021/12/26 08:07:11;;;;;;;;;8.75;8.75;;;;;19.39;42.03;99770.38;5058249;28;45885;-49
2021/12/26 08:09:36;;;;;;;;;8.25;6.00;;;;;19.39;42.54;99776.44;5039559;28;45861;-50
2021/12/26 08:12:02;;;;;;;;;7.00;6.00;;;;;19.35;42.35;99764.44;5058000;28;45430;-50
2021/12/26 08:14:27;;;;;;;;;7.75;7.00;;;;;19.36;42.20;99767.94;5058185;28;45504;-50
2021/12/26 08:16:52;;;;;;;;;7.00;6.00;;;;;19.36;42.19;99776.66;5058520;28;45258;-48
2021/12/26 08:19:18;;;;;;;;;8.00;8.00;;;;;19.36;42.43;99770.56;5057819;28;45331;-52
2021/12/26 08:21:43;;;;;;;;;7.25;7.00;;;;;19.35;42.29;99769.72;5057667;28;45274;-52
2021/12/26 08:24:09;;;;;;;;;8.75;7.50;;;;;19.35;42.23;99767.09;5039763;28;45375;-51
2021/12/26 08:26:34;;;;;;;;;9.00;9.00;;;;;19.35;42.40;99769.72;5058166;28;45466;-52
2021/12/26 08:29:00;;;;;;;;;5.00;5.00;;;;;19.34;42.49;99775.94;5057528;28;45312;-54
2021/12/26 08:31:26;;;;;;;;;6.50;6.00;;;;;19.33;42.69;99774.25;5058040;28;45500;-53
2021/12/26 08:33:51;;;;;;;;;8.00;6.25;;;;;19.30;42.24;99772.66;5057756;28;45234;-49
2021/12/26 08:36:21;;;;;;;;;9.00;7.00;;;;;19.34;42.20;99785.59;5057742;28;45514;-49
2021/12/26 08:38:47;;;;;;;;;7.50;7.25;;;;;19.34;42.17;99791.69;5057368;28;45519;-49
2021/12/26 08:41:12;;;;;;;;;8.00;7.50;;;;;19.33;42.61;99787.38;5039434;28;45384;-53
2021/12/26 08:43:41;;;;;;;;;9.00;7.75;;;;;19.34;42.63;99793.47;5057627;28;45676;-53
2021/12/26 08:46:06;;;;;;;;;9.00;6.00;;;;;19.33;42.71;99791.78;5057802;28;45466;-54
2021/12/26 08:48:32;;;;;;;;;6.25;5.75;;;;;19.32;42.58;99796.22;5057383;28;46534;-52
2021/12/26 08:50:57;;;;;;;;;7.75;6.75;;;;;19.32;42.68;99796.22;5057559;28;48878;-51
2021/12/26 08:53:27;;;;;;;;;6.00;6.00;;;;;19.31;42.57;99800.59;5039514;28;45343;-51
2021/12/26 08:55:53;;;;;;;;;7.25;6.00;;;;;19.32;42.31;99796.22;5057775;28;45419;-53
2021/12/26 08:58:19;;;;;;;;;7.00;6.00;;;;;19.31;42.65;99799.78;5057326;28;45650;-50
2021/12/26 09:00:45;;;;;;;;;6.75;6.75;;;;;19.31;42.24;99797.16;5057503;28;45427;-53
2021/12/26 09:03:10;;;;;;;;;7.50;6.00;;;;;19.31;42.71;99811.13;5057287;28;45298;-51
2021/12/26 09:05:36;;;;;;;;;6.50;6.00;;;;;19.29;42.62;99801.66;5057470;28;45166;-50
2021/12/26 09:08:02;;;;;;;;;8.25;7.00;;;;;19.30;42.78;99808.59;5056988;28;45472;-50
2021/12/26 09:10:28;;;;;;;;;8.00;7.75;;;;;19.28;42.52;99806.09;5057353;28;45237;-52
2021/12/26 09:12:54;;;;;;;;;7.00;7.00;;;;;19.29;42.66;99809.53;5057252;28;45228;-48
2021/12/26 09:15:21;;;;;;;;;7.50;7.25;;;;;19.29;42.66;99818.25;5057314;28;45551;-48
2021/12/26 09:17:46;;;;;;;;;8.50;6.00;;;;;19.29;42.54;99822.69;5056809;28;46592;-50
2021/12/26 09:20:12;;;;;;;;;7.00;7.00;;;;;19.28;42.52;99826.25;5056382;28;45332;-54
2021/12/26 09:22:40;;;;;;;;;7.00;6.00;;;;;19.28;42.33;99823.63;5057169;28;45419;-53
2021/12/26 09:25:06;;;;;;;;;7.75;6.75;;;;;19.27;42.67;99825.41;5057207;28;45553;-54
2021/12/26 09:27:31;;;;;;;;;7.00;6.00;;;;;19.27;42.50;99827.19;5056692;28;45439;-50
2021/12/26 09:29:56;;;;;;;;;8.00;6.00;;;;;19.25;42.71;99822.03;5057257;28;45228;-51
2021/12/26 09:32:22;;;;;;;;;8.00;6.50;;;;;19.27;42.27;99829.81;5038412;28;45335;-51
2021/12/26 09:34:47;;;;;;;;;7.00;6.75;;;;;19.26;42.44;99828.97;5056969;28;45557;-53
2021/12/26 09:37:14;;;;;;;;;6.25;4.75;;;;;19.27;42.51;99835.06;5038645;28;47970;-51
2021/12/26 09:39:39;;;;;;;;;7.00;6.00;;;;;19.26;42.41;99828.13;5056829;28;45812;-51
2021/12/26 09:42:05;;;;;;;;;7.00;6.25;;;;;19.24;42.65;99830.88;5056751;28;45240;-51
2021/12/26 09:44:32;;;;;;;;;6.00;6.00;;;;;19.26;42.60;99833.38;5057112;28;45341;-50
2021/12/26 09:46:57;;;;;;;;;5.00;5.00;;;;;19.25;42.49;99829.94;5056821;28;46269;-53
2021/12/26 09:49:23;;;;;;;;;9.00;7.00;;;;;19.25;42.99;99834.31;5038550;28;45335;-53
2021/12/26 09:51:50;;;;;;;;;6.50;6.50;;;;;19.25;42.59;99831.69;5056745;28;45372;-53
2021/12/26 09:54:16;;;;;;;;;7.75;6.00;;;;;19.25;42.52;99831.69;5038757;28;45624;-53
2021/12/26 09:56:42;;;;;;;;;8.00;6.50;;;;;19.23;42.68;99829.19;5056343;28;46473;-53
2021/12/26 09:59:15;;;;;;;;;6.25;5.25;;;;;19.23;42.48;99833.59;5056585;28;45360;-52
2021/12/26 10:01:44;;;;;;;;;8.00;6.25;;;;;19.22;42.69;99832.75;5056491;28;45348;-47
2021/12/26 10:04:29;;;;;;;;;6.25;5.25;;;;;19.23;42.54;99828.34;5056611;28;45444;-54
2021/12/26 10:07:02;;;;;;;;;6.00;6.00;;;;;19.23;42.60;99833.59;5055977;28;45270;-53
2021/12/26 10:09:28;;;;;;;;;6.75;6.75;;;;;19.22;43.02;99826.66;5056581;28;45178;-53
2021/12/26 10:11:57;;;;;;;;;5.00;5.00;;;;;19.22;42.89;99829.28;5056209;28;45221;-56
2021/12/26 10:14:29;;;;;;;;;6.25;5.00;;;;;19.24;43.01;99835.25;5056486;28;45578;-55
2021/12/26 10:17:01;;;;;;;;;8.25;6.00;;;;;19.22;42.76;99824.03;5055828;28;46622;-55
2021/12/26 10:19:32;;;;;;;;;6.25;5.00;;;;;19.22;42.85;99826.66;5056085;28;45785;-52
2021/12/26 10:22:02;;;;;;;;;5.00;4.00;;;;;19.22;42.89;99813.53;5056253;28;45388;-53
2021/12/26 10:24:29;;;;;;;;;8.00;5.25;;;;;19.20;42.96;99813.59;5056405;28;45483;-51
2021/12/26 10:27:02;;;;;;;;;6.25;6.00;;;;;19.21;42.82;99810.03;5037852;28;46564;-54
2021/12/26 10:29:35;;;;;;;;;6.50;6.50;;;;;19.21;42.58;99804.78;5056118;28;45296;-57
2021/12/26 10:32:03;;;;;;;;;7.00;7.00;;;;;19.19;43.29;99804.03;5056987;28;45253;-52
2021/12/26 10:34:33;;;;;;;;;7.00;5.50;;;;;19.20;42.83;99807.53;5059684;28;45329;-49
2021/12/26 10:37:01;;;;;;;;;3.75;3.75;;;;;19.19;43.12;99805.84;5059188;28;45631;-52
2021/12/26 10:39:43;;;;;;;;;6.00;5.75;;;;;19.20;42.61;99807.53;5059492;28;45752;-53
2021/12/26 10:42:13;;;;;;;;;7.25;6.50;;;;;19.19;43.34;99805.84;5059469;28;45309;-46
2021/12/26 10:44:43;;;;;;;;;4.00;4.00;;;;;19.18;43.24;99809.41;5059649;28;45312;-49
2021/12/26 10:47:16;;;;;;;;;5.50;3.00;;;;;19.18;42.71;99809.41;5059283;28;46956;-48
2021/12/26 10:49:57;;;;;;;;;6.25;5.25;;;;;19.16;43.17;99805.09;5041476;28;45299;-56
2021/12/26 10:52:29;;;;;;;;;6.75;5.50;;;;;19.16;42.85;99802.47;5059484;28;45368;-53
2021/12/26 10:54:58;;;;;;;;;4.00;4.00;;;;;19.18;42.92;99798.91;5059437;28;45462;-57
2021/12/26 10:57:30;;;;;;;;;5.00;4.75;;;;;19.16;43.46;99797.22;5058917;28;45502;-48
2021/12/26 11:00:07;;;;;;;;;4.50;3.75;;;;;19.18;43.24;99794.50;5059115;28;45261;-53
2021/12/26 11:02:34;;;;;;;;;4.00;4.00;;;;;19.21;43.11;99788.19;5059607;28;45348;-55
2021/12/26 11:05:04;;;;;;;;;5.00;5.00;;;;;19.25;43.38;99794.91;5059278;28;45182;-56
2021/12/26 11:07:44;;;;;;;;;5.75;4.00;;;;;19.31;43.54;99797.16;5058973;28;45338;-55
2021/12/26 11:10:15;;;;;;;;;5.50;4.75;;;;;19.34;43.18;99783.81;5059122;28;45857;-54
2021/12/26 11:12:43;;;;;;;;;4.00;4.00;;;;;19.44;43.52;99789.28;5059215;28;45329;-56
2021/12/26 11:15:10;;;;;;;;;5.00;4.00;;;;;19.51;43.67;99795.81;5059133;28;45225;-56
2021/12/26 11:17:45;;;;;;;;;6.75;4.00;;;;;19.58;43.66;99789.19;5059133;28;47083;-57
2021/12/26 11:20:19;;;;;;;;;6.00;5.00;;;;;19.66;43.35;99786.06;5058969;28;45982;-53
2021/12/26 11:22:45;;;;;;;;;6.50;3.75;;;;;19.69;43.05;99782.34;5059065;28;45262;-56
2021/12/26 11:25:10;;;;;;;;;4.00;4.00;;;;;19.78;43.41;99787.84;5059120;28;45313;-52
2021/12/26 11:27:35;;;;;;;;;7.00;4.25;;;;;19.86;42.75;99787.31;5059008;28;46139;-57
2021/12/26 11:30:01;;;;;;;;;6.25;3.75;;;;;19.91;43.37;99785.22;5058955;28;45535;-56
2021/12/26 11:32:27;;;;;;;;;3.75;3.75;;;;;19.93;43.22;99785.97;5058794;28;45487;-54